createdAt,value
2022-12-01T00:02:05.386Z,8.60
2022-12-01T00:05:07.724Z,7.57
2022-12-01T00:08:11.077Z,7.75
2022-12-01T00:11:13.660Z,7.28
2022-12-01T00:14:16.276Z,7.25
2022-12-01T00:17:18.836Z,7.43
2022-12-01T00:20:21.363Z,7.80
2022-12-01T00:23:23.427Z,7.45
2022-12-01T00:26:25.989Z,7.88
2022-12-01T00:29:28.915Z,7.57
2022-12-01T00:32:31.588Z,8.07
2022-12-01T00:35:34.066Z,7.78
2022-12-01T00:38:36.760Z,8.18
2022-12-01T00:41:39.371Z,7.78
2022-12-01T00:44:41.696Z,8.27
2022-12-01T00:47:44.897Z,7.93
2022-12-01T00:50:48.320Z,8.07
2022-12-01T00:53:50.509Z,7.60
2022-12-01T00:56:53.205Z,7.90
2022-12-01T00:59:55.642Z,8.40
2022-12-01T01:02:57.827Z,9.07
2022-12-01T01:06:00.078Z,7.63
2022-12-01T01:09:02.532Z,8.32
2022-12-01T01:12:04.924Z,7.75
2022-12-01T01:15:07.362Z,8.00
2022-12-01T01:18:10.507Z,8.15
2022-12-01T01:21:13.278Z,7.95
2022-12-01T01:24:16.053Z,8.20
2022-12-01T01:27:18.590Z,8.13
2022-12-01T01:30:20.827Z,7.82
2022-12-01T01:33:23.742Z,7.32
2022-12-01T01:36:26.299Z,7.90
2022-12-01T01:39:29.342Z,6.95
2022-12-01T01:42:31.636Z,7.47
2022-12-01T01:45:34.538Z,7.18
2022-12-01T01:48:37.450Z,8.07
2022-12-01T01:51:39.578Z,7.18
2022-12-01T01:54:41.799Z,8.02
2022-12-01T01:57:44.032Z,7.80
2022-12-01T02:00:46.720Z,7.95
2022-12-01T02:03:49.661Z,7.75
2022-12-01T02:06:52.283Z,7.47
2022-12-01T02:09:55.170Z,8.20
2022-12-01T02:12:57.372Z,8.15
2022-12-01T02:16:00.422Z,7.88
2022-12-01T02:19:04.126Z,8.38
2022-12-01T02:22:06.661Z,7.88
2022-12-01T02:25:09.012Z,8.10
2022-12-01T02:28:12.724Z,8.57
2022-12-01T02:31:15.803Z,8.20
2022-12-01T02:34:18.565Z,7.90
2022-12-01T02:37:21.401Z,9.13
2022-12-01T02:40:23.912Z,8.40
2022-12-01T02:43:27.033Z,8.45
2022-12-01T02:46:29.699Z,8.93
2022-12-01T02:49:31.883Z,8.10
2022-12-01T02:52:34.657Z,8.13
2022-12-01T02:55:37.407Z,8.85
2022-12-01T02:58:40.480Z,8.68
2022-12-01T03:01:43.353Z,8.23
2022-12-01T03:04:46.379Z,8.00
2022-12-01T03:07:49.258Z,8.15
2022-12-01T03:10:52.324Z,7.90
2022-12-01T03:13:55.187Z,8.32
2022-12-01T03:16:58.199Z,7.93
2022-12-01T03:20:01.111Z,7.75
2022-12-01T03:23:03.307Z,7.43
2022-12-01T03:26:06.247Z,8.05
2022-12-01T03:29:09.114Z,8.10
2022-12-01T03:32:11.530Z,8.20
2022-12-01T03:35:14.177Z,7.88
2022-12-01T03:38:17.058Z,7.45
2022-12-01T03:41:19.858Z,8.50
2022-12-01T03:44:22.319Z,8.88
2022-12-01T03:47:24.543Z,8.43
2022-12-01T03:50:27.393Z,8.43
2022-12-01T03:53:30.278Z,8.45
2022-12-01T03:56:33.608Z,8.85
2022-12-01T03:59:36.628Z,8.05
2022-12-01T04:02:39.874Z,8.40
2022-12-01T04:05:42.742Z,9.20
2022-12-01T04:08:45.092Z,8.50
2022-12-01T04:11:47.823Z,8.68
2022-12-01T04:14:51.074Z,9.10
2022-12-01T04:17:54.290Z,9.27
2022-12-01T04:20:57.266Z,8.75
2022-12-01T04:23:59.513Z,8.50
2022-12-01T04:27:01.902Z,8.15
2022-12-01T04:30:05.244Z,9.40
2022-12-01T04:33:07.689Z,8.38
2022-12-01T04:36:11.319Z,8.13
2022-12-01T04:39:14.626Z,8.40
2022-12-01T04:42:17.540Z,8.00
2022-12-01T04:45:20.189Z,7.85
2022-12-01T04:48:22.845Z,7.32
2022-12-01T04:51:25.300Z,8.52
2022-12-01T04:54:27.923Z,8.43
2022-12-01T04:57:30.582Z,8.77
2022-12-01T05:00:33.625Z,8.02
2022-12-01T05:03:36.134Z,8.55
2022-12-01T05:06:38.430Z,8.38
2022-12-01T05:09:40.962Z,8.77
2022-12-01T05:12:43.727Z,8.38
2022-12-01T05:15:46.856Z,8.40
2022-12-01T05:18:50.254Z,8.93
2022-12-01T05:21:52.957Z,8.73
2022-12-01T05:24:55.180Z,8.85
2022-12-01T05:27:57.767Z,8.90
2022-12-01T05:31:00.160Z,8.80
2022-12-01T05:34:02.986Z,8.30
2022-12-01T05:37:05.681Z,9.18
2022-12-01T05:40:08.580Z,8.23
2022-12-01T05:43:11.378Z,8.90
2022-12-01T05:46:13.546Z,9.10
2022-12-01T05:49:16.513Z,9.30
2022-12-01T05:52:19.278Z,9.20
2022-12-01T05:55:22.633Z,9.40
2022-12-01T05:58:25.994Z,9.25
2022-12-01T06:01:28.802Z,8.63
2022-12-01T06:04:31.692Z,8.80
2022-12-01T06:07:34.317Z,8.95
2022-12-01T06:10:37.169Z,8.60
2022-12-01T06:13:40.066Z,8.43
2022-12-01T06:16:42.519Z,9.00
2022-12-01T06:19:45.211Z,8.65
2022-12-01T06:22:48.100Z,8.90
2022-12-01T06:25:50.818Z,8.57
2022-12-01T06:28:53.579Z,8.48
2022-12-01T06:31:56.016Z,9.10
2022-12-01T06:34:58.376Z,8.88
2022-12-01T06:38:01.068Z,8.90
2022-12-01T06:41:03.972Z,9.45
2022-12-01T06:44:07.174Z,8.93
2022-12-01T06:47:09.504Z,9.00
2022-12-01T06:50:11.918Z,9.23
2022-12-01T06:53:14.717Z,9.18
2022-12-01T06:56:17.353Z,9.43
2022-12-01T06:59:19.946Z,9.52
2022-12-01T07:02:22.565Z,9.30
2022-12-01T07:05:25.956Z,9.80
2022-12-01T07:08:28.687Z,9.70
2022-12-01T07:11:31.633Z,10.27
2022-12-01T07:14:34.107Z,9.02
2022-12-01T07:17:36.222Z,9.40
2022-12-01T07:20:39.103Z,8.85
2022-12-01T07:23:41.468Z,9.02
2022-12-01T07:26:43.655Z,8.90
2022-12-01T07:29:46.009Z,8.43
2022-12-01T07:32:48.419Z,8.80
2022-12-01T07:35:51.113Z,8.68
2022-12-01T07:38:53.744Z,8.57
2022-12-01T07:41:56.019Z,8.35
2022-12-01T07:44:58.681Z,8.80
2022-12-01T07:48:01.470Z,8.30
2022-12-01T07:51:03.970Z,8.93
2022-12-01T07:54:06.694Z,8.68
2022-12-01T07:57:09.739Z,9.23
2022-12-01T08:00:12.673Z,8.63
2022-12-01T08:03:15.885Z,8.65
2022-12-01T08:06:18.736Z,9.18
2022-12-01T08:09:21.441Z,9.07
2022-12-01T08:12:24.584Z,9.55
2022-12-01T08:15:27.014Z,9.45
2022-12-01T08:18:29.679Z,8.88
2022-12-01T08:21:32.238Z,9.82
2022-12-01T08:24:34.375Z,9.35
2022-12-01T08:27:36.881Z,9.23
2022-12-01T08:30:40.117Z,8.90
2022-12-01T08:33:42.869Z,9.82
2022-12-01T08:36:45.791Z,9.82
2022-12-01T08:39:48.202Z,9.32
2022-12-01T08:42:51.140Z,9.52
2022-12-01T08:45:53.775Z,9.38
2022-12-01T08:48:56.295Z,8.98
2022-12-01T08:51:58.825Z,9.95
2022-12-01T08:55:01.284Z,8.88
2022-12-01T08:58:04.337Z,9.50
2022-12-01T09:01:07.785Z,9.48
2022-12-01T09:04:10.494Z,8.60
2022-12-01T09:07:12.637Z,8.90
2022-12-01T09:10:15.297Z,9.70
2022-12-01T09:13:17.402Z,9.38
2022-12-01T09:16:20.234Z,9.50
2022-12-01T09:19:25.116Z,9.95
2022-12-01T09:22:27.780Z,9.75
2022-12-01T09:25:30.290Z,9.35
2022-12-01T09:28:33.359Z,9.30
2022-12-01T09:31:36.716Z,10.02
2022-12-01T09:34:39.617Z,9.73
2022-12-01T09:37:42.113Z,9.68
2022-12-01T09:40:45.046Z,10.27
2022-12-01T09:43:48.247Z,11.13
2022-12-01T09:46:51.040Z,10.20
2022-12-01T09:49:53.878Z,10.48
2022-12-01T09:52:56.429Z,10.70
2022-12-01T09:56:04.995Z,10.05
2022-12-01T09:59:11.114Z,10.02
2022-12-01T10:02:13.413Z,10.93
2022-12-01T10:05:16.500Z,11.27
2022-12-01T10:08:22.475Z,10.60
2022-12-01T10:11:29.526Z,10.30
2022-12-01T10:14:32.492Z,10.90
2022-12-01T10:17:34.667Z,10.48
2022-12-01T10:20:36.649Z,10.40
2022-12-01T10:23:39.285Z,10.38
2022-12-01T10:26:42.413Z,10.23
2022-12-01T10:29:47.691Z,10.15
2022-12-01T10:32:50.687Z,9.93
2022-12-01T10:35:53.584Z,10.75
2022-12-01T10:38:56.471Z,10.02
2022-12-01T10:41:59.453Z,9.85
2022-12-01T10:45:02.750Z,9.90
2022-12-01T10:48:06.027Z,10.23
2022-12-01T10:51:08.543Z,11.07
2022-12-01T10:54:11.505Z,11.30
2022-12-01T10:57:14.479Z,11.23
2022-12-01T11:00:42.975Z,9.40
2022-12-01T11:03:40.546Z,10.85
2022-12-01T11:06:43.778Z,10.70
2022-12-01T11:09:46.272Z,11.52
2022-12-01T11:12:48.865Z,11.73
2022-12-01T11:15:51.426Z,11.70
2022-12-01T11:18:53.611Z,11.27
2022-12-01T11:21:55.861Z,11.93
2022-12-01T11:24:58.520Z,11.32
2022-12-01T11:28:00.691Z,11.52
2022-12-01T11:31:03.616Z,11.98
2022-12-01T11:34:06.085Z,11.32
2022-12-01T11:37:08.632Z,11.38
2022-12-01T11:40:11.081Z,11.30
2022-12-01T11:43:14.208Z,11.80
2022-12-01T11:46:17.661Z,11.27
2022-12-01T11:49:20.817Z,11.98
2022-12-01T11:52:23.410Z,11.98
2022-12-01T11:55:25.991Z,12.40
2022-12-01T11:58:28.707Z,12.05
2022-12-01T12:01:31.433Z,11.82
2022-12-01T12:04:34.014Z,12.18
2022-12-01T12:07:37.611Z,11.55
2022-12-01T12:10:41.487Z,12.82
2022-12-01T12:13:44.144Z,13.15
2022-12-01T12:16:46.911Z,12.20
2022-12-01T12:23:11.677Z,12.90
2022-12-01T12:26:13.850Z,13.70
2022-12-01T12:29:16.676Z,12.75
2022-12-01T12:32:19.360Z,13.15
2022-12-01T12:35:22.482Z,14.32
2022-12-01T12:38:25.481Z,13.68
2022-12-01T12:41:28.883Z,14.35
2022-12-01T12:44:36.800Z,13.73
2022-12-01T12:47:42.018Z,14.00
2022-12-01T12:50:45.273Z,13.45
2022-12-01T12:53:47.794Z,13.63
2022-12-01T12:56:51.600Z,13.07
2022-12-01T12:59:54.278Z,13.23
2022-12-01T13:02:56.870Z,13.23
2022-12-01T13:05:58.883Z,13.95
2022-12-01T13:09:01.947Z,13.40
2022-12-01T13:12:04.843Z,12.68
2022-12-01T13:15:07.061Z,13.30
2022-12-01T13:18:10.098Z,13.18
2022-12-01T13:21:13.281Z,13.40
2022-12-01T13:24:22.549Z,12.40
2022-12-01T13:27:26.874Z,12.82
2022-12-01T13:30:29.662Z,12.60
2022-12-01T13:33:31.540Z,12.63
2022-12-01T13:36:49.213Z,12.18
2022-12-01T13:39:52.227Z,11.63
2022-12-01T13:42:55.745Z,12.57
2022-12-01T13:45:58.955Z,12.20
2022-12-01T13:49:01.488Z,12.38
2022-12-01T13:52:04.638Z,11.93
2022-12-01T13:55:08.423Z,12.00
2022-12-01T13:58:11.888Z,11.70
2022-12-01T14:01:14.566Z,12.38
2022-12-01T14:04:17.145Z,12.35
2022-12-01T14:07:19.769Z,12.32
2022-12-01T14:10:22.321Z,12.00
2022-12-01T14:13:25.173Z,11.23
2022-12-01T14:16:27.372Z,12.02
2022-12-01T14:19:29.941Z,11.80
2022-12-01T14:22:32.364Z,11.40
2022-12-01T14:25:35.243Z,11.60
2022-12-01T14:28:38.531Z,11.77
2022-12-01T14:31:42.332Z,11.35
2022-12-01T14:34:45.663Z,11.40
2022-12-01T14:37:48.124Z,11.73
2022-12-01T14:40:50.628Z,11.77
2022-12-01T14:43:53.471Z,12.38
2022-12-01T14:46:55.661Z,11.60
2022-12-01T14:49:58.304Z,11.38
2022-12-01T14:53:03.238Z,13.05
2022-12-01T14:56:06.351Z,12.40
2022-12-01T14:59:09.366Z,12.30
2022-12-01T15:02:12.748Z,11.80
2022-12-01T15:05:15.415Z,11.20
2022-12-01T15:08:41.049Z,11.27
2022-12-01T15:11:40.301Z,11.25
2022-12-01T15:14:42.992Z,10.32
2022-12-01T15:17:45.936Z,10.90
2022-12-01T15:20:48.497Z,10.70
2022-12-01T15:23:51.802Z,10.77
2022-12-01T15:26:59.107Z,11.20
2022-12-01T15:30:04.974Z,11.07
2022-12-01T15:33:07.830Z,11.07
2022-12-01T15:36:10.410Z,11.98
2022-12-01T15:39:12.987Z,10.60
2022-12-01T15:42:15.581Z,10.15
2022-12-01T15:45:18.409Z,10.10
2022-12-01T15:48:21.289Z,10.35
2022-12-01T15:51:24.439Z,10.65
2022-12-01T15:54:27.314Z,10.45
2022-12-01T15:57:29.929Z,10.88
2022-12-01T16:00:32.482Z,10.63
2022-12-01T16:03:35.736Z,11.32
2022-12-01T16:06:38.237Z,11.13
2022-12-01T16:09:40.791Z,10.38
2022-12-01T16:12:43.685Z,10.63
2022-12-01T16:15:46.621Z,10.85
2022-12-01T16:18:49.150Z,10.95
2022-12-01T16:21:52.196Z,10.93
2022-12-01T16:24:55.120Z,10.93
2022-12-01T16:27:57.640Z,10.90
2022-12-01T16:31:00.518Z,11.50
2022-12-01T16:34:13.746Z,10.95
2022-12-01T16:37:21.806Z,10.95
2022-12-01T16:40:24.974Z,10.15
2022-12-01T16:43:27.751Z,10.30
2022-12-01T16:46:30.356Z,10.30
2022-12-01T16:49:33.013Z,10.30
2022-12-01T16:52:44.216Z,10.35
2022-12-01T16:55:47.521Z,9.63
2022-12-01T16:58:50.148Z,10.02
2022-12-01T17:01:53.333Z,9.80
2022-12-01T17:04:56.884Z,9.60
2022-12-01T17:07:59.759Z,9.68
2022-12-01T17:11:02.552Z,9.82
2022-12-01T17:14:04.936Z,9.80
2022-12-01T17:17:07.769Z,9.30
2022-12-01T17:20:11.147Z,9.65
2022-12-01T17:23:14.558Z,9.90
2022-12-01T17:26:17.521Z,9.35
2022-12-01T17:29:20.573Z,9.73
2022-12-01T17:32:23.230Z,10.52
2022-12-01T17:35:25.681Z,9.40
2022-12-01T17:38:28.227Z,9.75
2022-12-01T17:41:31.056Z,10.02
2022-12-01T17:44:33.897Z,10.05
2022-12-01T17:47:36.928Z,10.50
2022-12-01T17:50:39.377Z,9.77
2022-12-01T17:53:41.540Z,10.07
2022-12-01T17:56:44.399Z,9.93
2022-12-01T17:59:46.717Z,10.30
2022-12-01T18:02:49.199Z,10.48
2022-12-01T18:05:51.846Z,9.68
2022-12-01T18:08:53.992Z,9.75
2022-12-01T18:11:56.895Z,10.05
2022-12-01T18:14:59.801Z,9.63
2022-12-01T18:18:02.437Z,8.68
2022-12-01T18:21:04.944Z,9.45
2022-12-01T18:24:07.289Z,9.13
2022-12-01T18:27:10.801Z,9.05
2022-12-01T18:30:13.392Z,9.18
2022-12-01T18:33:16.047Z,8.60
2022-12-01T18:36:19.714Z,8.88
2022-12-01T18:39:22.659Z,8.68
2022-12-01T18:42:25.155Z,8.68
2022-12-01T18:45:27.839Z,8.57
2022-12-01T18:48:31.164Z,8.52
2022-12-01T18:51:34.524Z,8.73
2022-12-01T18:54:37.004Z,8.73
2022-12-01T18:57:39.800Z,8.82
2022-12-01T19:00:42.006Z,9.65
2022-12-01T19:03:44.623Z,9.13
2022-12-01T19:06:47.332Z,9.05
2022-12-01T19:09:50.023Z,9.45
2022-12-01T19:12:52.630Z,9.13
2022-12-01T19:15:55.250Z,9.02
2022-12-01T19:18:57.674Z,9.48
2022-12-01T19:21:59.715Z,8.95
2022-12-01T19:25:02.496Z,9.43
2022-12-01T19:28:05.047Z,8.98
2022-12-01T19:31:07.869Z,9.70
2022-12-01T19:34:10.420Z,9.10
2022-12-01T19:37:12.618Z,8.82
2022-12-01T19:40:15.167Z,8.93
2022-12-01T19:43:17.623Z,10.13
2022-12-01T19:46:19.871Z,9.65
2022-12-01T19:49:22.522Z,8.68
2022-12-01T19:52:25.238Z,8.57
2022-12-01T19:55:28.102Z,8.45
2022-12-01T19:58:30.882Z,8.50
2022-12-01T20:01:33.311Z,8.63
2022-12-01T20:04:35.689Z,8.45
2022-12-01T20:07:38.317Z,8.55
2022-12-01T20:10:40.519Z,8.77
2022-12-01T20:13:43.400Z,8.43
2022-12-01T20:16:46.388Z,8.63
2022-12-01T20:19:49.174Z,9.00
2022-12-01T20:22:51.343Z,8.50
2022-12-01T20:25:53.557Z,8.57
2022-12-01T20:28:56.466Z,8.98
2022-12-01T20:32:00.159Z,8.15
2022-12-01T20:35:02.394Z,8.50
2022-12-01T20:38:04.887Z,8.98
2022-12-01T20:41:08.164Z,9.43
2022-12-01T20:44:10.658Z,9.38
2022-12-01T20:47:13.170Z,9.05
2022-12-01T20:50:16.049Z,9.90
2022-12-01T20:53:18.597Z,9.55
2022-12-01T20:56:20.824Z,9.68
2022-12-01T20:59:23.002Z,9.68
2022-12-01T21:02:25.463Z,9.80
2022-12-01T21:05:28.408Z,9.88
2022-12-01T21:08:31.295Z,9.40
2022-12-01T21:11:33.742Z,9.35
2022-12-01T21:14:36.315Z,10.43
2022-12-01T21:17:38.843Z,9.88
2022-12-01T21:20:42.051Z,10.20
2022-12-01T21:23:44.662Z,9.88
2022-12-01T21:26:48.476Z,10.68
2022-12-01T21:29:51.439Z,10.20
2022-12-01T21:32:54.422Z,9.57
2022-12-01T21:35:57.323Z,9.77
2022-12-01T21:39:00.196Z,9.77
2022-12-01T21:42:03.865Z,9.65
2022-12-01T21:45:07.038Z,10.15
2022-12-01T21:48:09.915Z,10.30
2022-12-01T21:51:12.412Z,10.13
2022-12-01T21:54:15.143Z,10.10
2022-12-01T21:57:17.860Z,10.75
2022-12-01T22:00:20.672Z,10.13
2022-12-01T22:03:23.587Z,10.65
2022-12-01T22:06:30.310Z,10.68
2022-12-01T22:09:33.596Z,10.52
2022-12-01T22:12:36.251Z,11.10
2022-12-01T22:15:39.160Z,11.57
2022-12-01T22:18:41.671Z,11.60
2022-12-01T22:21:44.417Z,12.18
2022-12-01T22:24:46.532Z,11.23
2022-12-01T22:27:48.642Z,11.40
2022-12-01T22:30:50.940Z,12.38
2022-12-01T22:33:53.574Z,12.23
2022-12-01T22:36:56.421Z,12.13
2022-12-01T22:39:59.076Z,11.60
2022-12-01T22:43:01.926Z,11.98
2022-12-01T22:46:04.416Z,12.35
2022-12-01T22:49:07.583Z,11.88
2022-12-01T22:52:10.354Z,11.13
2022-12-01T22:55:12.916Z,11.52
2022-12-01T22:58:16.452Z,12.15
2022-12-01T23:01:18.922Z,12.27
2022-12-01T23:04:21.376Z,11.60
2022-12-01T23:07:24.264Z,12.50
2022-12-01T23:10:26.920Z,12.07
2022-12-01T23:13:29.878Z,12.55
2022-12-01T23:16:32.754Z,11.95
2022-12-01T23:19:34.999Z,11.80
2022-12-01T23:22:37.204Z,12.27
2022-12-01T23:25:40.189Z,12.35
2022-12-01T23:28:42.643Z,12.68
2022-12-01T23:31:45.168Z,12.70
2022-12-01T23:34:48.206Z,13.07
2022-12-01T23:37:50.472Z,12.52
2022-12-01T23:40:53.058Z,13.02
2022-12-01T23:43:55.515Z,13.73
2022-12-01T23:46:57.696Z,13.38
2022-12-01T23:50:00.316Z,13.20
2022-12-01T23:53:03.204Z,13.82
2022-12-01T23:56:06.458Z,13.85
2022-12-01T23:59:09.213Z,14.25
